sensor_id;sensor_type;location;lat;lon;timestamp;P1;durP1;ratioP1;P2;durP2;ratioP2
6017;SDS011;3037;51.068;13.780;2023-11-19T00:01:18;14.73;;;9.53;;
6017;SDS011;3037;51.068;13.780;2023-11-19T00:03:44;14.97;;;10.10;;
6017;SDS011;3037;51.068;13.780;2023-11-19T00:06:09;16.23;;;10.73;;
6017;SDS011;3037;51.068;13.780;2023-11-19T00:08:36;16.20;;;10.53;;
6017;SDS011;3037;51.068;13.780;2023-11-19T00:11:01;16.93;;;11.30;;
6017;SDS011;3037;51.068;13.780;2023-11-19T00:13:28;13.97;;;11.13;;
6017;SDS011;3037;51.068;13.780;2023-11-19T00:15:53;13.23;;;10.97;;
6017;SDS011;3037;51.068;13.780;2023-11-19T00:18:19;13.40;;;9.77;;
6017;SDS011;3037;51.068;13.780;2023-11-19T00:20:45;14.37;;;10.73;;
6017;SDS011;3037;51.068;13.780;2023-11-19T00:23:10;14.93;;;10.90;;
6017;SDS011;3037;51.068;13.780;2023-11-19T00:25:36;17.00;;;12.50;;
6017;SDS011;3037;51.068;13.780;2023-11-19T00:28:03;24.03;;;11.50;;
6017;SDS011;3037;51.068;13.780;2023-11-19T00:30:29;18.57;;;11.43;;
6017;SDS011;3037;51.068;13.780;2023-11-19T00:32:56;20.30;;;12.00;;
6017;SDS011;3037;51.068;13.780;2023-11-19T00:35:21;13.73;;;10.47;;
6017;SDS011;3037;51.068;13.780;2023-11-19T00:37:47;15.27;;;10.90;;
6017;SDS011;3037;51.068;13.780;2023-11-19T00:40:13;15.60;;;11.27;;
6017;SDS011;3037;51.068;13.780;2023-11-19T00:42:40;16.53;;;11.40;;
6017;SDS011;3037;51.068;13.780;2023-11-19T00:45:06;12.97;;;10.73;;
6017;SDS011;3037;51.068;13.780;2023-11-19T00:47:35;13.03;;;10.30;;
6017;SDS011;3037;51.068;13.780;2023-11-19T00:50:01;14.20;;;10.87;;
6017;SDS011;3037;51.068;13.780;2023-11-19T00:52:28;14.03;;;8.63;;
6017;SDS011;3037;51.068;13.780;2023-11-19T00:54:53;11.97;;;9.03;;
6017;SDS011;3037;51.068;13.780;2023-11-19T00:57:19;11.60;;;9.20;;
6017;SDS011;3037;51.068;13.780;2023-11-19T00:59:44;10.10;;;7.67;;
6017;SDS011;3037;51.068;13.780;2023-11-19T01:02:10;13.13;;;8.47;;
6017;SDS011;3037;51.068;13.780;2023-11-19T01:04:36;11.47;;;8.77;;
6017;SDS011;3037;51.068;13.780;2023-11-19T01:07:02;12.20;;;9.50;;
6017;SDS011;3037;51.068;13.780;2023-11-19T01:09:31;13.77;;;8.80;;
6017;SDS011;3037;51.068;13.780;2023-11-19T01:11:59;9.50;;;8.17;;
6017;SDS011;3037;51.068;13.780;2023-11-19T01:14:26;9.83;;;8.07;;
6017;SDS011;3037;51.068;13.780;2023-11-19T01:16:52;10.03;;;8.03;;
6017;SDS011;3037;51.068;13.780;2023-11-19T01:19:21;8.07;;;7.37;;
6017;SDS011;3037;51.068;13.780;2023-11-19T01:21:48;7.23;;;6.57;;
6017;SDS011;3037;51.068;13.780;2023-11-19T01:24:14;7.00;;;6.30;;
6017;SDS011;3037;51.068;13.780;2023-11-19T01:26:40;7.73;;;6.97;;
6017;SDS011;3037;51.068;13.780;2023-11-19T01:29:12;7.97;;;7.27;;
6017;SDS011;3037;51.068;13.780;2023-11-19T01:31:42;7.70;;;6.00;;
6017;SDS011;3037;51.068;13.780;2023-11-19T01:34:08;6.60;;;6.00;;
6017;SDS011;3037;51.068;13.780;2023-11-19T01:36:35;6.37;;;5.77;;
6017;SDS011;3037;51.068;13.780;2023-11-19T01:39:00;6.57;;;5.73;;
6017;SDS011;3037;51.068;13.780;2023-11-19T01:41:26;6.40;;;5.60;;
6017;SDS011;3037;51.068;13.780;2023-11-19T01:43:52;5.80;;;5.30;;
6017;SDS011;3037;51.068;13.780;2023-11-19T01:46:17;5.73;;;5.23;;
6017;SDS011;3037;51.068;13.780;2023-11-19T01:48:44;4.77;;;4.40;;
6017;SDS011;3037;51.068;13.780;2023-11-19T01:51:10;5.50;;;5.00;;
6017;SDS011;3037;51.068;13.780;2023-11-19T01:53:37;5.17;;;4.63;;
6017;SDS011;3037;51.068;13.780;2023-11-19T01:56:08;5.63;;;5.13;;
6017;SDS011;3037;51.068;13.780;2023-11-19T01:58:36;4.67;;;4.30;;
6017;SDS011;3037;51.068;13.780;2023-11-19T02:01:02;3.33;;;3.13;;
6017;SDS011;3037;51.068;13.780;2023-11-19T02:03:29;4.30;;;3.90;;
6017;SDS011;3037;51.068;13.780;2023-11-19T02:05:57;4.33;;;4.00;;
6017;SDS011;3037;51.068;13.780;2023-11-19T02:08:24;4.00;;;3.70;;
6017;SDS011;3037;51.068;13.780;2023-11-19T02:10:49;4.67;;;4.10;;
6017;SDS011;3037;51.068;13.780;2023-11-19T02:13:15;3.70;;;3.40;;
6017;SDS011;3037;51.068;13.780;2023-11-19T02:15:41;6.00;;;3.87;;
6017;SDS011;3037;51.068;13.780;2023-11-19T02:18:25;3.20;;;3.10;;
6017;SDS011;3037;51.068;13.780;2023-11-19T02:20:55;3.50;;;3.20;;
6017;SDS011;3037;51.068;13.780;2023-11-19T02:23:21;3.77;;;3.47;;
6017;SDS011;3037;51.068;13.780;2023-11-19T02:25:47;3.50;;;3.20;;
6017;SDS011;3037;51.068;13.780;2023-11-19T02:28:30;3.50;;;3.30;;
6017;SDS011;3037;51.068;13.780;2023-11-19T02:30:57;3.70;;;3.47;;
6017;SDS011;3037;51.068;13.780;2023-11-19T02:33:23;3.80;;;3.57;;
6017;SDS011;3037;51.068;13.780;2023-11-19T02:35:49;3.30;;;3.17;;
6017;SDS011;3037;51.068;13.780;2023-11-19T02:38:15;3.00;;;2.90;;
6017;SDS011;3037;51.068;13.780;2023-11-19T02:40:41;9.77;;;3.20;;
6017;SDS011;3037;51.068;13.780;2023-11-19T02:43:07;4.30;;;3.90;;
6017;SDS011;3037;51.068;13.780;2023-11-19T02:45:33;3.13;;;3.03;;
6017;SDS011;3037;51.068;13.780;2023-11-19T02:47:59;4.10;;;3.80;;
6017;SDS011;3037;51.068;13.780;2023-11-19T02:50:28;3.30;;;3.20;;
6017;SDS011;3037;51.068;13.780;2023-11-19T02:52:54;5.70;;;3.47;;
6017;SDS011;3037;51.068;13.780;2023-11-19T02:55:23;3.20;;;3.00;;
6017;SDS011;3037;51.068;13.780;2023-11-19T02:57:50;3.00;;;2.90;;
6017;SDS011;3037;51.068;13.780;2023-11-19T03:02:48;3.50;;;3.30;;
6017;SDS011;3037;51.068;13.780;2023-11-19T03:05:23;3.63;;;3.30;;
6017;SDS011;3037;51.068;13.780;2023-11-19T03:07:49;3.70;;;2.90;;
6017;SDS011;3037;51.068;13.780;2023-11-19T03:10:14;3.77;;;3.27;;
6017;SDS011;3037;51.068;13.780;2023-11-19T03:12:40;3.77;;;3.43;;
6017;SDS011;3037;51.068;13.780;2023-11-19T03:15:06;3.57;;;3.27;;
6017;SDS011;3037;51.068;13.780;2023-11-19T03:17:35;2.80;;;2.70;;
6017;SDS011;3037;51.068;13.780;2023-11-19T03:20:01;10.03;;;2.93;;
6017;SDS011;3037;51.068;13.780;2023-11-19T03:22:28;3.20;;;3.00;;
6017;SDS011;3037;51.068;13.780;2023-11-19T03:24:54;3.33;;;3.03;;
6017;SDS011;3037;51.068;13.780;2023-11-19T03:27:21;2.83;;;2.70;;
6017;SDS011;3037;51.068;13.780;2023-11-19T03:29:46;3.00;;;2.80;;
6017;SDS011;3037;51.068;13.780;2023-11-19T03:32:12;2.53;;;2.43;;
6017;SDS011;3037;51.068;13.780;2023-11-19T03:34:37;3.10;;;2.90;;
6017;SDS011;3037;51.068;13.780;2023-11-19T03:37:03;2.80;;;2.60;;
6017;SDS011;3037;51.068;13.780;2023-11-19T03:39:29;3.37;;;3.10;;
6017;SDS011;3037;51.068;13.780;2023-11-19T03:41:54;3.57;;;2.63;;
6017;SDS011;3037;51.068;13.780;2023-11-19T03:44:20;2.60;;;2.50;;
6017;SDS011;3037;51.068;13.780;2023-11-19T03:46:46;3.70;;;2.97;;
6017;SDS011;3037;51.068;13.780;2023-11-19T03:49:12;2.73;;;2.53;;
6017;SDS011;3037;51.068;13.780;2023-11-19T03:51:37;2.60;;;2.50;;
6017;SDS011;3037;51.068;13.780;2023-11-19T03:54:03;2.50;;;2.40;;
6017;SDS011;3037;51.068;13.780;2023-11-19T03:56:28;2.70;;;2.60;;
6017;SDS011;3037;51.068;13.780;2023-11-19T03:58:56;2.93;;;2.83;;
6017;SDS011;3037;51.068;13.780;2023-11-19T04:01:21;3.00;;;2.80;;
6017;SDS011;3037;51.068;13.780;2023-11-19T04:03:47;3.27;;;3.07;;
6017;SDS011;3037;51.068;13.780;2023-11-19T04:06:12;4.67;;;4.27;;
6017;SDS011;3037;51.068;13.780;2023-11-19T04:08:38;3.60;;;3.40;;
6017;SDS011;3037;51.068;13.780;2023-11-19T04:11:03;3.80;;;3.60;;
6017;SDS011;3037;51.068;13.780;2023-11-19T04:13:30;5.23;;;4.07;;
6017;SDS011;3037;51.068;13.780;2023-11-19T04:15:55;4.20;;;3.90;;
6017;SDS011;3037;51.068;13.780;2023-11-19T04:18:21;4.63;;;4.30;;
6017;SDS011;3037;51.068;13.780;2023-11-19T04:20:46;4.57;;;4.17;;
6017;SDS011;3037;51.068;13.780;2023-11-19T04:23:12;5.00;;;4.53;;
6017;SDS011;3037;51.068;13.780;2023-11-19T04:25:37;4.73;;;4.30;;
6017;SDS011;3037;51.068;13.780;2023-11-19T04:28:03;4.63;;;4.20;;
6017;SDS011;3037;51.068;13.780;2023-11-19T04:30:29;5.40;;;4.90;;
6017;SDS011;3037;51.068;13.780;2023-11-19T04:32:56;4.67;;;4.40;;
6017;SDS011;3037;51.068;13.780;2023-11-19T04:35:22;4.70;;;4.30;;
6017;SDS011;3037;51.068;13.780;2023-11-19T04:37:48;5.50;;;5.00;;
6017;SDS011;3037;51.068;13.780;2023-11-19T04:40:14;5.20;;;4.13;;
6017;SDS011;3037;51.068;13.780;2023-11-19T04:42:39;6.30;;;4.90;;
6017;SDS011;3037;51.068;13.780;2023-11-19T04:45:05;24.53;;;5.30;;
6017;SDS011;3037;51.068;13.780;2023-11-19T04:47:32;5.47;;;4.97;;
6017;SDS011;3037;51.068;13.780;2023-11-19T04:49:58;9.83;;;6.50;;
6017;SDS011;3037;51.068;13.780;2023-11-19T04:52:23;7.77;;;5.87;;
6017;SDS011;3037;51.068;13.780;2023-11-19T04:54:49;7.03;;;6.43;;
6017;SDS011;3037;51.068;13.780;2023-11-19T04:57:15;7.57;;;6.87;;
6017;SDS011;3037;51.068;13.780;2023-11-19T04:59:40;15.60;;;6.90;;
6017;SDS011;3037;51.068;13.780;2023-11-19T05:02:06;7.63;;;6.83;;
6017;SDS011;3037;51.068;13.780;2023-11-19T05:04:33;9.53;;;6.60;;
6017;SDS011;3037;51.068;13.780;2023-11-19T05:06:58;7.43;;;6.73;;
6017;SDS011;3037;51.068;13.780;2023-11-19T05:09:24;7.70;;;7.00;;
6017;SDS011;3037;51.068;13.780;2023-11-19T05:11:49;9.87;;;8.13;;
6017;SDS011;3037;51.068;13.780;2023-11-19T05:14:15;10.70;;;7.80;;
6017;SDS011;3037;51.068;13.780;2023-11-19T05:16:41;9.93;;;7.67;;
6017;SDS011;3037;51.068;13.780;2023-11-19T05:19:07;7.97;;;7.17;;
6017;SDS011;3037;51.068;13.780;2023-11-19T05:21:34;19.20;;;8.73;;
6017;SDS011;3037;51.068;13.780;2023-11-19T05:24:00;11.77;;;8.77;;
6017;SDS011;3037;51.068;13.780;2023-11-19T05:26:29;10.50;;;8.10;;
6017;SDS011;3037;51.068;13.780;2023-11-19T05:28:55;10.50;;;8.77;;
6017;SDS011;3037;51.068;13.780;2023-11-19T05:31:21;11.43;;;9.33;;
6017;SDS011;3037;51.068;13.780;2023-11-19T05:33:46;11.37;;;8.57;;
6017;SDS011;3037;51.068;13.780;2023-11-19T05:36:12;11.77;;;9.90;;
6017;SDS011;3037;51.068;13.780;2023-11-19T05:38:38;12.00;;;10.13;;
6017;SDS011;3037;51.068;13.780;2023-11-19T05:41:04;9.43;;;8.30;;
6017;SDS011;3037;51.068;13.780;2023-11-19T05:43:30;12.07;;;8.10;;
6017;SDS011;3037;51.068;13.780;2023-11-19T05:45:56;12.33;;;9.27;;
6017;SDS011;3037;51.068;13.780;2023-11-19T05:48:22;10.83;;;9.67;;
6017;SDS011;3037;51.068;13.780;2023-11-19T05:50:48;11.67;;;9.03;;
6017;SDS011;3037;51.068;13.780;2023-11-19T05:53:15;10.97;;;9.13;;
6017;SDS011;3037;51.068;13.780;2023-11-19T05:55:40;13.20;;;9.93;;
6017;SDS011;3037;51.068;13.780;2023-11-19T05:58:29;14.83;;;9.70;;
6017;SDS011;3037;51.068;13.780;2023-11-19T06:00:55;13.27;;;10.40;;
6017;SDS011;3037;51.068;13.780;2023-11-19T06:03:21;10.93;;;9.77;;
6017;SDS011;3037;51.068;13.780;2023-11-19T06:05:48;12.73;;;10.13;;
6017;SDS011;3037;51.068;13.780;2023-11-19T06:08:14;12.23;;;9.37;;
6017;SDS011;3037;51.068;13.780;2023-11-19T06:10:40;13.90;;;8.90;;
6017;SDS011;3037;51.068;13.780;2023-11-19T06:13:06;11.97;;;8.87;;
6017;SDS011;3037;51.068;13.780;2023-11-19T06:15:32;10.13;;;8.73;;
6017;SDS011;3037;51.068;13.780;2023-11-19T06:17:58;8.67;;;7.60;;
6017;SDS011;3037;51.068;13.780;2023-11-19T06:20:28;9.97;;;8.90;;
6017;SDS011;3037;51.068;13.780;2023-11-19T06:22:54;7.70;;;6.90;;
6017;SDS011;3037;51.068;13.780;2023-11-19T06:25:21;7.30;;;6.67;;
6017;SDS011;3037;51.068;13.780;2023-11-19T06:27:48;7.10;;;6.50;;
6017;SDS011;3037;51.068;13.780;2023-11-19T06:30:14;7.10;;;6.50;;
6017;SDS011;3037;51.068;13.780;2023-11-19T06:32:40;8.10;;;6.70;;
6017;SDS011;3037;51.068;13.780;2023-11-19T06:35:05;7.87;;;6.77;;
6017;SDS011;3037;51.068;13.780;2023-11-19T06:37:31;6.90;;;6.20;;
6017;SDS011;3037;51.068;13.780;2023-11-19T06:39:56;6.00;;;5.37;;
6017;SDS011;3037;51.068;13.780;2023-11-19T06:42:22;6.17;;;5.60;;
6017;SDS011;3037;51.068;13.780;2023-11-19T06:44:47;5.60;;;5.20;;
6017;SDS011;3037;51.068;13.780;2023-11-19T06:47:13;5.57;;;5.10;;
6017;SDS011;3037;51.068;13.780;2023-11-19T06:49:38;5.67;;;5.27;;
6017;SDS011;3037;51.068;13.780;2023-11-19T06:52:04;4.83;;;4.53;;
6017;SDS011;3037;51.068;13.780;2023-11-19T06:54:30;6.33;;;5.73;;
6017;SDS011;3037;51.068;13.780;2023-11-19T06:56:56;4.43;;;4.03;;
6017;SDS011;3037;51.068;13.780;2023-11-19T06:59:22;5.80;;;5.30;;
6017;SDS011;3037;51.068;13.780;2023-11-19T07:01:48;5.43;;;5.03;;
6017;SDS011;3037;51.068;13.780;2023-11-19T07:04:13;4.50;;;4.00;;
6017;SDS011;3037;51.068;13.780;2023-11-19T07:06:39;6.23;;;5.63;;
6017;SDS011;3037;51.068;13.780;2023-11-19T07:09:08;5.17;;;4.20;;
6017;SDS011;3037;51.068;13.780;2023-11-19T07:11:37;4.20;;;3.80;;
6017;SDS011;3037;51.068;13.780;2023-11-19T07:14:04;4.17;;;3.87;;
6017;SDS011;3037;51.068;13.780;2023-11-19T07:16:31;4.73;;;3.80;;
6017;SDS011;3037;51.068;13.780;2023-11-19T07:19:02;3.77;;;3.57;;
6017;SDS011;3037;51.068;13.780;2023-11-19T07:21:28;2.87;;;2.77;;
6017;SDS011;3037;51.068;13.780;2023-11-19T07:23:54;2.77;;;2.67;;
6017;SDS011;3037;51.068;13.780;2023-11-19T07:26:20;2.83;;;2.73;;
6017;SDS011;3037;51.068;13.780;2023-11-19T07:28:46;2.83;;;2.73;;
6017;SDS011;3037;51.068;13.780;2023-11-19T07:31:13;4.03;;;3.63;;
6017;SDS011;3037;51.068;13.780;2023-11-19T07:33:39;3.90;;;3.70;;
6017;SDS011;3037;51.068;13.780;2023-11-19T07:36:07;3.43;;;3.23;;
6017;SDS011;3037;51.068;13.780;2023-11-19T07:38:36;3.03;;;2.83;;
6017;SDS011;3037;51.068;13.780;2023-11-19T07:41:03;3.00;;;2.80;;
6017;SDS011;3037;51.068;13.780;2023-11-19T07:43:30;2.90;;;2.80;;
6017;SDS011;3037;51.068;13.780;2023-11-19T07:45:55;3.17;;;3.07;;
6017;SDS011;3037;51.068;13.780;2023-11-19T07:48:21;3.40;;;3.10;;
6017;SDS011;3037;51.068;13.780;2023-11-19T07:50:48;2.43;;;2.33;;
6017;SDS011;3037;51.068;13.780;2023-11-19T07:53:17;2.87;;;2.73;;
6017;SDS011;3037;51.068;13.780;2023-11-19T07:55:43;3.00;;;2.80;;
6017;SDS011;3037;51.068;13.780;2023-11-19T07:58:09;3.30;;;3.10;;
6017;SDS011;3037;51.068;13.780;2023-11-19T08:00:37;2.77;;;2.67;;
6017;SDS011;3037;51.068;13.780;2023-11-19T08:03:03;3.50;;;2.87;;
6017;SDS011;3037;51.068;13.780;2023-11-19T08:05:30;4.90;;;3.23;;
6017;SDS011;3037;51.068;13.780;2023-11-19T08:07:56;2.53;;;2.43;;
6017;SDS011;3037;51.068;13.780;2023-11-19T08:10:22;2.80;;;2.70;;
6017;SDS011;3037;51.068;13.780;2023-11-19T08:12:47;3.83;;;3.53;;
6017;SDS011;3037;51.068;13.780;2023-11-19T08:15:13;4.50;;;4.10;;
6017;SDS011;3037;51.068;13.780;2023-11-19T08:17:39;3.37;;;3.13;;
6017;SDS011;3037;51.068;13.780;2023-11-19T08:20:05;5.70;;;3.03;;
6017;SDS011;3037;51.068;13.780;2023-11-19T08:22:35;3.63;;;3.33;;
6017;SDS011;3037;51.068;13.780;2023-11-19T08:25:01;3.20;;;3.00;;
6017;SDS011;3037;51.068;13.780;2023-11-19T08:27:26;2.73;;;2.53;;
6017;SDS011;3037;51.068;13.780;2023-11-19T08:29:53;3.67;;;3.47;;
6017;SDS011;3037;51.068;13.780;2023-11-19T08:32:21;2.40;;;2.30;;
6017;SDS011;3037;51.068;13.780;2023-11-19T08:34:48;3.73;;;3.47;;
6017;SDS011;3037;51.068;13.780;2023-11-19T08:37:13;3.70;;;3.40;;
6017;SDS011;3037;51.068;13.780;2023-11-19T08:39:39;3.67;;;3.57;;
6017;SDS011;3037;51.068;13.780;2023-11-19T08:42:06;5.93;;;3.13;;
6017;SDS011;3037;51.068;13.780;2023-11-19T08:44:31;2.97;;;2.83;;
6017;SDS011;3037;51.068;13.780;2023-11-19T08:46:57;3.17;;;2.97;;
6017;SDS011;3037;51.068;13.780;2023-11-19T08:49:22;2.60;;;2.50;;
6017;SDS011;3037;51.068;13.780;2023-11-19T08:51:48;3.13;;;2.80;;
6017;SDS011;3037;51.068;13.780;2023-11-19T08:54:14;2.07;;;1.97;;
6017;SDS011;3037;51.068;13.780;2023-11-19T08:56:39;2.10;;;2.00;;
6017;SDS011;3037;51.068;13.780;2023-11-19T08:59:05;1.80;;;1.80;;
6017;SDS011;3037;51.068;13.780;2023-11-19T09:01:31;2.63;;;2.53;;
6017;SDS011;3037;51.068;13.780;2023-11-19T09:03:56;1.93;;;1.83;;
6017;SDS011;3037;51.068;13.780;2023-11-19T09:06:22;1.97;;;1.93;;
6017;SDS011;3037;51.068;13.780;2023-11-19T09:08:48;2.60;;;1.97;;
6017;SDS011;3037;51.068;13.780;2023-11-19T09:11:13;2.60;;;2.40;;
6017;SDS011;3037;51.068;13.780;2023-11-19T09:13:39;2.00;;;1.93;;
6017;SDS011;3037;51.068;13.780;2023-11-19T09:16:04;2.47;;;2.03;;
6017;SDS011;3037;51.068;13.780;2023-11-19T09:18:30;6.73;;;2.73;;
6017;SDS011;3037;51.068;13.780;2023-11-19T09:20:57;3.63;;;3.37;;
6017;SDS011;3037;51.068;13.780;2023-11-19T09:23:23;1.80;;;1.80;;
6017;SDS011;3037;51.068;13.780;2023-11-19T09:25:50;11.53;;;1.80;;
6017;SDS011;3037;51.068;13.780;2023-11-19T09:28:16;3.03;;;2.93;;
6017;SDS011;3037;51.068;13.780;2023-11-19T09:30:41;3.80;;;3.50;;
6017;SDS011;3037;51.068;13.780;2023-11-19T09:33:07;3.50;;;3.30;;
6017;SDS011;3037;51.068;13.780;2023-11-19T09:35:32;2.30;;;2.20;;
6017;SDS011;3037;51.068;13.780;2023-11-19T09:37:58;2.73;;;2.63;;
6017;SDS011;3037;51.068;13.780;2023-11-19T09:40:24;2.10;;;1.90;;
6017;SDS011;3037;51.068;13.780;2023-11-19T09:42:49;2.17;;;2.00;;
6017;SDS011;3037;51.068;13.780;2023-11-19T09:45:15;2.60;;;2.40;;
6017;SDS011;3037;51.068;13.780;2023-11-19T09:47:43;2.60;;;1.93;;
6017;SDS011;3037;51.068;13.780;2023-11-19T09:50:11;1.77;;;1.67;;
6017;SDS011;3037;51.068;13.780;2023-11-19T09:52:41;76.33;;;32.33;;
6017;SDS011;3037;51.068;13.780;2023-11-19T09:55:07;24.40;;;13.07;;
6017;SDS011;3037;51.068;13.780;2023-11-19T09:57:33;5.03;;;1.60;;
6017;SDS011;3037;51.068;13.780;2023-11-19T10:00:03;4.93;;;3.17;;
6017;SDS011;3037;51.068;13.780;2023-11-19T10:02:30;26.07;;;13.47;;
6017;SDS011;3037;51.068;13.780;2023-11-19T10:04:58;3.43;;;2.80;;
6017;SDS011;3037;51.068;13.780;2023-11-19T10:07:25;25.93;;;9.23;;
6017;SDS011;3037;51.068;13.780;2023-11-19T10:09:51;10.37;;;2.33;;
6017;SDS011;3037;51.068;13.780;2023-11-19T10:12:16;28.40;;;9.17;;
6017;SDS011;3037;51.068;13.780;2023-11-19T10:14:42;7.23;;;2.50;;
6017;SDS011;3037;51.068;13.780;2023-11-19T10:17:09;3.37;;;1.73;;
6017;SDS011;3037;51.068;13.780;2023-11-19T10:19:34;3.03;;;1.30;;
6017;SDS011;3037;51.068;13.780;2023-11-19T10:22:02;1.20;;;1.20;;
6017;SDS011;3037;51.068;13.780;2023-11-19T10:24:32;1.63;;;1.23;;
6017;SDS011;3037;51.068;13.780;2023-11-19T10:26:59;2.97;;;1.33;;
6017;SDS011;3037;51.068;13.780;2023-11-19T10:29:25;3.57;;;1.20;;
6017;SDS011;3037;51.068;13.780;2023-11-19T10:31:57;3.17;;;1.50;;
6017;SDS011;3037;51.068;13.780;2023-11-19T10:34:24;5.27;;;2.53;;
6017;SDS011;3037;51.068;13.780;2023-11-19T10:36:51;3.60;;;2.43;;
6017;SDS011;3037;51.068;13.780;2023-11-19T10:39:16;1.37;;;1.10;;
6017;SDS011;3037;51.068;13.780;2023-11-19T10:41:43;3.17;;;1.50;;
6017;SDS011;3037;51.068;13.780;2023-11-19T10:44:09;1.23;;;1.07;;
6017;SDS011;3037;51.068;13.780;2023-11-19T10:46:38;3.80;;;1.13;;
6017;SDS011;3037;51.068;13.780;2023-11-19T10:49:05;1.57;;;1.47;;
6017;SDS011;3037;51.068;13.780;2023-11-19T10:51:31;2.87;;;1.50;;
6017;SDS011;3037;51.068;13.780;2023-11-19T10:53:58;1.67;;;1.43;;
6017;SDS011;3037;51.068;13.780;2023-11-19T10:56:33;1.60;;;1.50;;
6017;SDS011;3037;51.068;13.780;2023-11-19T10:58:59;2.27;;;1.20;;
6017;SDS011;3037;51.068;13.780;2023-11-19T11:01:33;6.53;;;1.80;;
6017;SDS011;3037;51.068;13.780;2023-11-19T11:04:05;7.00;;;1.60;;
6017;SDS011;3037;51.068;13.780;2023-11-19T11:06:40;3.20;;;1.40;;
6017;SDS011;3037;51.068;13.780;2023-11-19T11:09:06;1.70;;;1.33;;
6017;SDS011;3037;51.068;13.780;2023-11-19T11:11:37;1.87;;;1.13;;
6017;SDS011;3037;51.068;13.780;2023-11-19T11:14:03;2.10;;;1.30;;
6017;SDS011;3037;51.068;13.780;2023-11-19T11:16:30;2.67;;;1.50;;
6017;SDS011;3037;51.068;13.780;2023-11-19T11:18:56;1.90;;;1.07;;
6017;SDS011;3037;51.068;13.780;2023-11-19T11:21:24;3.00;;;1.43;;
6017;SDS011;3037;51.068;13.780;2023-11-19T11:23:58;3.40;;;1.57;;
6017;SDS011;3037;51.068;13.780;2023-11-19T11:26:49;1.17;;;1.07;;
6017;SDS011;3037;51.068;13.780;2023-11-19T11:37:18;1.43;;;1.17;;
6017;SDS011;3037;51.068;13.780;2023-11-19T11:39:57;2.40;;;0.90;;
6017;SDS011;3037;51.068;13.780;2023-11-19T11:50:14;4.43;;;1.50;;
6017;SDS011;3037;51.068;13.780;2023-11-19T11:56:08;10.70;;;1.77;;
6017;SDS011;3037;51.068;13.780;2023-11-19T11:58:21;3.57;;;2.00;;
6017;SDS011;3037;51.068;13.780;2023-11-19T12:00:51;4.10;;;1.60;;
6017;SDS011;3037;51.068;13.780;2023-11-19T12:03:19;3.50;;;1.73;;
6017;SDS011;3037;51.068;13.780;2023-11-19T12:05:49;3.63;;;1.53;;
6017;SDS011;3037;51.068;13.780;2023-11-19T12:08:15;3.00;;;1.80;;
6017;SDS011;3037;51.068;13.780;2023-11-19T12:10:46;6.47;;;1.60;;
6017;SDS011;3037;51.068;13.780;2023-11-19T12:13:15;3.50;;;1.43;;
6017;SDS011;3037;51.068;13.780;2023-11-19T12:20:55;4.33;;;2.17;;
6017;SDS011;3037;51.068;13.780;2023-11-19T12:23:21;3.07;;;1.73;;
6017;SDS011;3037;51.068;13.780;2023-11-19T12:25:47;6.43;;;1.73;;
6017;SDS011;3037;51.068;13.780;2023-11-19T12:28:13;2.07;;;1.87;;
6017;SDS011;3037;51.068;13.780;2023-11-19T12:30:41;6.57;;;2.23;;
6017;SDS011;3037;51.068;13.780;2023-11-19T12:33:10;4.93;;;2.03;;
6017;SDS011;3037;51.068;13.780;2023-11-19T12:35:40;6.33;;;2.37;;
6017;SDS011;3037;51.068;13.780;2023-11-19T12:41:01;6.57;;;2.30;;
6017;SDS011;3037;51.068;13.780;2023-11-19T12:43:28;6.87;;;2.40;;
6017;SDS011;3037;51.068;13.780;2023-11-19T12:45:54;6.87;;;2.20;;
6017;SDS011;3037;51.068;13.780;2023-11-19T12:48:19;8.17;;;2.63;;
6017;SDS011;3037;51.068;13.780;2023-11-19T12:53:21;7.77;;;2.30;;
6017;SDS011;3037;51.068;13.780;2023-11-19T12:55:47;7.90;;;3.50;;
6017;SDS011;3037;51.068;13.780;2023-11-19T12:58:29;12.23;;;1.87;;
6017;SDS011;3037;51.068;13.780;2023-11-19T13:01:02;8.83;;;1.80;;
6017;SDS011;3037;51.068;13.780;2023-11-19T13:03:29;14.70;;;2.10;;
6017;SDS011;3037;51.068;13.780;2023-11-19T13:06:03;10.13;;;2.20;;
6017;SDS011;3037;51.068;13.780;2023-11-19T13:08:36;11.33;;;2.47;;
6017;SDS011;3037;51.068;13.780;2023-11-19T13:11:10;8.33;;;2.30;;
6017;SDS011;3037;51.068;13.780;2023-11-19T13:13:58;13.80;;;2.70;;
6017;SDS011;3037;51.068;13.780;2023-11-19T13:16:24;6.87;;;2.87;;
6017;SDS011;3037;51.068;13.780;2023-11-19T13:18:51;8.23;;;2.40;;
6017;SDS011;3037;51.068;13.780;2023-11-19T13:21:16;11.90;;;3.07;;
6017;SDS011;3037;51.068;13.780;2023-11-19T13:23:42;5.60;;;2.37;;
6017;SDS011;3037;51.068;13.780;2023-11-19T13:26:09;7.13;;;2.30;;
6017;SDS011;3037;51.068;13.780;2023-11-19T13:28:35;1.70;;;1.60;;
6017;SDS011;3037;51.068;13.780;2023-11-19T13:31:01;5.13;;;2.13;;
6017;SDS011;3037;51.068;13.780;2023-11-19T13:33:27;7.60;;;2.60;;
6017;SDS011;3037;51.068;13.780;2023-11-19T13:35:54;9.23;;;3.10;;
6017;SDS011;3037;51.068;13.780;2023-11-19T13:38:20;8.80;;;2.80;;
6017;SDS011;3037;51.068;13.780;2023-11-19T13:40:45;9.80;;;3.33;;
6017;SDS011;3037;51.068;13.780;2023-11-19T13:43:11;12.33;;;3.03;;
6017;SDS011;3037;51.068;13.780;2023-11-19T13:45:36;14.43;;;3.20;;
6017;SDS011;3037;51.068;13.780;2023-11-19T13:48:02;7.13;;;3.60;;
6017;SDS011;3037;51.068;13.780;2023-11-19T13:50:28;13.67;;;3.30;;
6017;SDS011;3037;51.068;13.780;2023-11-19T13:52:54;10.30;;;3.27;;
6017;SDS011;3037;51.068;13.780;2023-11-19T13:55:19;12.60;;;3.40;;
6017;SDS011;3037;51.068;13.780;2023-11-19T13:57:45;8.43;;;2.50;;
6017;SDS011;3037;51.068;13.780;2023-11-19T14:00:11;24.90;;;5.97;;
6017;SDS011;3037;51.068;13.780;2023-11-19T14:02:41;58.23;;;14.00;;
6017;SDS011;3037;51.068;13.780;2023-11-19T14:05:08;8.40;;;2.30;;
6017;SDS011;3037;51.068;13.780;2023-11-19T14:07:35;13.93;;;3.13;;
6017;SDS011;3037;51.068;13.780;2023-11-19T14:10:01;13.77;;;3.17;;
6017;SDS011;3037;51.068;13.780;2023-11-19T14:12:27;35.17;;;7.70;;
6017;SDS011;3037;51.068;13.780;2023-11-19T14:14:52;7.70;;;2.63;;
6017;SDS011;3037;51.068;13.780;2023-11-19T14:17:19;12.63;;;3.23;;
6017;SDS011;3037;51.068;13.780;2023-11-19T14:19:45;12.37;;;3.10;;
6017;SDS011;3037;51.068;13.780;2023-11-19T14:22:10;21.00;;;3.20;;
6017;SDS011;3037;51.068;13.780;2023-11-19T14:24:36;15.97;;;2.90;;
6017;SDS011;3037;51.068;13.780;2023-11-19T14:27:02;10.27;;;2.73;;
6017;SDS011;3037;51.068;13.780;2023-11-19T14:29:28;9.40;;;2.67;;
6017;SDS011;3037;51.068;13.780;2023-11-19T14:31:55;5.33;;;2.10;;
6017;SDS011;3037;51.068;13.780;2023-11-19T14:34:21;11.87;;;3.00;;
6017;SDS011;3037;51.068;13.780;2023-11-19T14:36:47;17.90;;;4.20;;
6017;SDS011;3037;51.068;13.780;2023-11-19T14:39:12;22.53;;;6.43;;
6017;SDS011;3037;51.068;13.780;2023-11-19T14:41:38;30.27;;;6.60;;
6017;SDS011;3037;51.068;13.780;2023-11-19T14:44:04;13.23;;;4.53;;
6017;SDS011;3037;51.068;13.780;2023-11-19T14:46:30;8.93;;;2.97;;
6017;SDS011;3037;51.068;13.780;2023-11-19T14:48:56;11.80;;;4.10;;
6017;SDS011;3037;51.068;13.780;2023-11-19T14:51:21;21.53;;;5.97;;
6017;SDS011;3037;51.068;13.780;2023-11-19T14:53:47;18.60;;;3.57;;
6017;SDS011;3037;51.068;13.780;2023-11-19T14:56:13;25.77;;;4.40;;
6017;SDS011;3037;51.068;13.780;2023-11-19T14:58:38;17.07;;;3.27;;
6017;SDS011;3037;51.068;13.780;2023-11-19T15:01:04;7.20;;;3.20;;
6017;SDS011;3037;51.068;13.780;2023-11-19T15:03:31;11.40;;;3.83;;
6017;SDS011;3037;51.068;13.780;2023-11-19T15:05:57;14.17;;;3.23;;
6017;SDS011;3037;51.068;13.780;2023-11-19T15:08:23;14.07;;;3.20;;
6017;SDS011;3037;51.068;13.780;2023-11-19T15:10:48;13.80;;;2.63;;
6017;SDS011;3037;51.068;13.780;2023-11-19T15:13:14;13.70;;;3.93;;
6017;SDS011;3037;51.068;13.780;2023-11-19T15:15:40;12.40;;;3.00;;
6017;SDS011;3037;51.068;13.780;2023-11-19T15:18:05;8.43;;;3.17;;
6017;SDS011;3037;51.068;13.780;2023-11-19T15:20:31;17.00;;;3.70;;
6017;SDS011;3037;51.068;13.780;2023-11-19T15:22:57;16.47;;;3.87;;
6017;SDS011;3037;51.068;13.780;2023-11-19T15:25:23;16.63;;;2.90;;